sensor_id;sensor_type;location;lat;lon;timestamp;pressure;altitude;pressure_sealevel;temperature;humidity
35551;BME280;21655;46.056;13.616;2022-07-03T00:01:08;100566.84;;;26.57;54.44
35551;BME280;21655;46.056;13.616;2022-07-03T00:03:34;100567.72;;;26.57;54.27
35551;BME280;21655;46.056;13.616;2022-07-03T00:05:59;100558.91;;;26.59;54.01
35551;BME280;21655;46.056;13.616;2022-07-03T00:08:24;100570.00;;;26.60;54.12
35551;BME280;21655;46.056;13.616;2022-07-03T00:10:50;100570.84;;;26.51;54.44
35551;BME280;21655;46.056;13.616;2022-07-03T00:13:16;100571.41;;;26.53;54.25
35551;BME280;21655;46.056;13.616;2022-07-03T00:15:41;100576.53;;;26.51;54.41
35551;BME280;21655;46.056;13.616;2022-07-03T00:18:08;100578.72;;;26.44;54.90
35551;BME280;21655;46.056;13.616;2022-07-03T00:20:42;100575.31;;;26.42;54.93
35551;BME280;21655;46.056;13.616;2022-07-03T00:23:10;100580.41;;;26.40;54.77
35551;BME280;21655;46.056;13.616;2022-07-03T00:25:39;100579.31;;;26.46;54.07
35551;BME280;21655;46.056;13.616;2022-07-03T00:28:06;100573.63;;;26.46;54.11
35551;BME280;21655;46.056;13.616;2022-07-03T00:30:33;100569.03;;;26.40;54.47
35551;BME280;21655;46.056;13.616;2022-07-03T00:33:02;100563.34;;;26.35;54.47
35551;BME280;21655;46.056;13.616;2022-07-03T00:35:31;100556.22;;;26.32;54.36
35551;BME280;21655;46.056;13.616;2022-07-03T00:37:58;100561.31;;;26.30;54.29
35551;BME280;21655;46.056;13.616;2022-07-03T00:40:23;100570.16;;;26.34;53.82
35551;BME280;21655;46.056;13.616;2022-07-03T00:42:50;100565.31;;;26.34;53.86
35551;BME280;21655;46.056;13.616;2022-07-03T00:45:19;100564.75;;;26.32;53.51
35551;BME280;21655;46.056;13.616;2022-07-03T00:47:45;100565.88;;;26.31;53.74
35551;BME280;21655;46.056;13.616;2022-07-03T00:50:10;100564.72;;;26.22;54.01
35551;BME280;21655;46.056;13.616;2022-07-03T00:52:37;100562.72;;;26.23;53.77
35551;BME280;21655;46.056;13.616;2022-07-03T00:55:07;100558.16;;;26.17;53.98
35551;BME280;21655;46.056;13.616;2022-07-03T00:57:33;100550.75;;;26.16;53.96
35551;BME280;21655;46.056;13.616;2022-07-03T01:00:00;100548.16;;;26.14;53.98
35551;BME280;21655;46.056;13.616;2022-07-03T01:05:38;100546.44;;;26.08;54.11
35551;BME280;21655;46.056;13.616;2022-07-03T01:16:28;100546.19;;;26.15;53.25
35551;BME280;21655;46.056;13.616;2022-07-03T01:27:10;100532.50;;;26.07;52.98
35551;BME280;21655;46.056;13.616;2022-07-03T01:32:24;100530.19;;;25.99;53.47
35551;BME280;21655;46.056;13.616;2022-07-03T01:34:52;100527.63;;;25.97;53.65
35551;BME280;21655;46.056;13.616;2022-07-03T01:37:22;100519.09;;;25.97;53.50
35551;BME280;21655;46.056;13.616;2022-07-03T01:39:52;100513.97;;;25.94;53.64
35551;BME280;21655;46.056;13.616;2022-07-03T01:42:18;100521.63;;;25.94;53.74
35551;BME280;21655;46.056;13.616;2022-07-03T01:44:45;100520.47;;;25.90;53.89
35551;BME280;21655;46.056;13.616;2022-07-03T01:47:14;100519.88;;;25.88;53.44
35551;BME280;21655;46.056;13.616;2022-07-03T01:49:41;100508.53;;;25.88;53.56
35551;BME280;21655;46.056;13.616;2022-07-03T01:52:08;100514.97;;;25.78;53.85
35551;BME280;21655;46.056;13.616;2022-07-03T01:54:37;100507.59;;;25.77;53.81
35551;BME280;21655;46.056;13.616;2022-07-03T01:57:05;100515.28;;;25.82;53.52
35551;BME280;21655;46.056;13.616;2022-07-03T01:59:31;100512.16;;;25.83;53.71
35551;BME280;21655;46.056;13.616;2022-07-03T02:02:25;100512.16;;;25.83;53.62
35551;BME280;21655;46.056;13.616;2022-07-03T02:05:03;100513.59;;;25.81;53.49
35551;BME280;21655;46.056;13.616;2022-07-03T02:07:55;100505.59;;;25.78;53.52
35551;BME280;21655;46.056;13.616;2022-07-03T02:10:30;100508.41;;;25.73;53.75
35551;BME280;21655;46.056;13.616;2022-07-03T02:13:07;100509.53;;;25.72;53.64
35551;BME280;21655;46.056;13.616;2022-07-03T02:15:34;100499.63;;;25.74;53.56
35551;BME280;21655;46.056;13.616;2022-07-03T02:18:08;100506.94;;;25.65;53.89
35551;BME280;21655;46.056;13.616;2022-07-03T02:20:39;100498.16;;;25.67;54.13
35551;BME280;21655;46.056;13.616;2022-07-03T02:23:11;100502.94;;;25.61;54.59
35551;BME280;21655;46.056;13.616;2022-07-03T02:25:40;100505.44;;;25.53;54.71
35551;BME280;21655;46.056;13.616;2022-07-03T02:28:18;100488.63;;;25.46;54.78
35551;BME280;21655;46.056;13.616;2022-07-03T02:30:52;100493.19;;;25.47;54.67
35551;BME280;21655;46.056;13.616;2022-07-03T02:33:24;100490.91;;;25.44;54.88
35551;BME280;21655;46.056;13.616;2022-07-03T02:35:53;100487.19;;;25.44;54.93
35551;BME280;21655;46.056;13.616;2022-07-03T02:38:20;100492.63;;;25.45;54.52
35551;BME280;21655;46.056;13.616;2022-07-03T02:41:08;100495.19;;;25.47;54.70
35551;BME280;21655;46.056;13.616;2022-07-03T02:49:47;100490.22;;;25.27;55.80
35551;BME280;21655;46.056;13.616;2022-07-03T02:55:41;100496.69;;;25.23;55.74
35551;BME280;21655;46.056;13.616;2022-07-03T03:04:02;100501.44;;;25.17;56.37
35551;BME280;21655;46.056;13.616;2022-07-03T03:06:33;100496.91;;;25.16;56.53
35551;BME280;21655;46.056;13.616;2022-07-03T03:09:03;100503.13;;;25.13;56.39
35551;BME280;21655;46.056;13.616;2022-07-03T03:11:42;100500.81;;;25.06;56.77
35551;BME280;21655;46.056;13.616;2022-07-03T03:14:11;100487.97;;;24.98;57.45
35551;BME280;21655;46.056;13.616;2022-07-03T03:16:50;100498.97;;;24.90;57.63
35551;BME280;21655;46.056;13.616;2022-07-03T03:19:20;100491.03;;;24.92;57.57
35551;BME280;21655;46.056;13.616;2022-07-03T03:22:40;100492.06;;;24.81;58.39
35551;BME280;21655;46.056;13.616;2022-07-03T03:24:54;100494.31;;;24.79;58.63
35551;BME280;21655;46.056;13.616;2022-07-03T03:27:21;100502.44;;;24.70;58.71
35551;BME280;21655;46.056;13.616;2022-07-03T03:29:47;100503.91;;;24.73;58.93
35551;BME280;21655;46.056;13.616;2022-07-03T03:32:13;100501.91;;;24.73;59.08
35551;BME280;21655;46.056;13.616;2022-07-03T03:34:41;100503.25;;;24.66;59.38
35551;BME280;21655;46.056;13.616;2022-07-03T03:37:06;100504.13;;;24.66;59.69
35551;BME280;21655;46.056;13.616;2022-07-03T03:39:32;100504.13;;;24.66;59.31
35551;BME280;21655;46.056;13.616;2022-07-03T03:41:58;100505.84;;;24.67;59.19
35551;BME280;21655;46.056;13.616;2022-07-03T03:44:26;100507.78;;;24.67;59.84
35551;BME280;21655;46.056;13.616;2022-07-03T03:46:51;100508.16;;;24.49;61.56
35551;BME280;21655;46.056;13.616;2022-07-03T03:49:17;100501.72;;;24.32;62.27
35551;BME280;21655;46.056;13.616;2022-07-03T03:51:43;100518.00;;;24.20;63.85
35551;BME280;21655;46.056;13.616;2022-07-03T03:54:09;100519.28;;;24.07;63.47
35551;BME280;21655;46.056;13.616;2022-07-03T03:56:34;100515.84;;;24.05;63.57
35551;BME280;21655;46.056;13.616;2022-07-03T03:59:00;100507.59;;;24.04;64.12
35551;BME280;21655;46.056;13.616;2022-07-03T04:01:25;100515.91;;;24.10;64.00
35551;BME280;21655;46.056;13.616;2022-07-03T04:03:51;100524.00;;;24.23;62.21
35551;BME280;21655;46.056;13.616;2022-07-03T04:06:19;100511.69;;;24.34;61.99
35551;BME280;21655;46.056;13.616;2022-07-03T04:08:44;100512.84;;;24.38;61.72
35551;BME280;21655;46.056;13.616;2022-07-03T04:11:10;100517.94;;;24.36;62.19
35551;BME280;21655;46.056;13.616;2022-07-03T04:13:35;100506.47;;;24.26;63.88
35551;BME280;21655;46.056;13.616;2022-07-03T04:16:00;100519.06;;;24.14;65.13
35551;BME280;21655;46.056;13.616;2022-07-03T04:18:26;100522.06;;;24.02;64.34
35551;BME280;21655;46.056;13.616;2022-07-03T04:20:51;100527.25;;;24.10;63.98
35551;BME280;21655;46.056;13.616;2022-07-03T04:23:17;100530.16;;;24.15;63.34
35551;BME280;21655;46.056;13.616;2022-07-03T04:25:43;100528.31;;;24.26;63.46
35551;BME280;21655;46.056;13.616;2022-07-03T04:28:09;100535.75;;;24.10;65.52
35551;BME280;21655;46.056;13.616;2022-07-03T04:30:34;100527.25;;;24.10;64.55
35551;BME280;21655;46.056;13.616;2022-07-03T04:33:00;100525.66;;;24.19;64.11
35551;BME280;21655;46.056;13.616;2022-07-03T04:35:25;100529.16;;;24.26;64.66
35551;BME280;21655;46.056;13.616;2022-07-03T04:37:51;100530.41;;;24.14;65.69
35551;BME280;21655;46.056;13.616;2022-07-03T04:40:16;100530.75;;;24.17;66.51
35551;BME280;21655;46.056;13.616;2022-07-03T04:42:42;100534.63;;;24.33;65.79
35551;BME280;21655;46.056;13.616;2022-07-03T04:45:07;100520.69;;;24.53;65.37
35551;BME280;21655;46.056;13.616;2022-07-03T04:47:33;100533.78;;;24.80;64.79
35551;BME280;21655;46.056;13.616;2022-07-03T04:49:59;100531.06;;;24.95;63.41
35551;BME280;21655;46.056;13.616;2022-07-03T04:52:24;100525.16;;;25.02;63.73
35551;BME280;21655;46.056;13.616;2022-07-03T04:54:50;100528.75;;;25.18;60.99
35551;BME280;21655;46.056;13.616;2022-07-03T04:57:16;100534.50;;;25.23;62.81
35551;BME280;21655;46.056;13.616;2022-07-03T04:59:41;100528.50;;;25.25;60.54
35551;BME280;21655;46.056;13.616;2022-07-03T05:02:07;100522.28;;;25.28;61.98
35551;BME280;21655;46.056;13.616;2022-07-03T05:04:33;100526.13;;;25.43;61.01
35551;BME280;21655;46.056;13.616;2022-07-03T05:06:58;100521.13;;;25.65;59.41
35551;BME280;21655;46.056;13.616;2022-07-03T05:09:24;100528.53;;;25.66;59.27
35551;BME280;21655;46.056;13.616;2022-07-03T05:11:50;100521.25;;;25.80;58.54
35551;BME280;21655;46.056;13.616;2022-07-03T05:14:15;100520.66;;;25.78;60.05
35551;BME280;21655;46.056;13.616;2022-07-03T05:16:40;100522.47;;;25.89;59.60
35551;BME280;21655;46.056;13.616;2022-07-03T05:19:07;100519.97;;;26.03;58.05
35551;BME280;21655;46.056;13.616;2022-07-03T05:21:33;100519.97;;;26.08;57.18
35551;BME280;21655;46.056;13.616;2022-07-03T05:23:58;100514.97;;;26.35;55.65
35551;BME280;21655;46.056;13.616;2022-07-03T05:26:24;100521.00;;;26.43;55.93
35551;BME280;21655;46.056;13.616;2022-07-03T05:28:50;100517.56;;;26.41;55.09
35551;BME280;21655;46.056;13.616;2022-07-03T05:31:15;100519.63;;;26.56;54.97
35551;BME280;21655;46.056;13.616;2022-07-03T05:33:41;100525.63;;;26.64;54.88
35551;BME280;21655;46.056;13.616;2022-07-03T05:36:07;100518.25;;;26.73;54.68
35551;BME280;21655;46.056;13.616;2022-07-03T05:38:32;100525.94;;;26.93;53.95
35551;BME280;21655;46.056;13.616;2022-07-03T05:41:17;100523.69;;;27.09;53.80
35551;BME280;21655;46.056;13.616;2022-07-03T05:43:42;100518.03;;;27.34;54.10
35551;BME280;21655;46.056;13.616;2022-07-03T05:46:08;100519.72;;;27.60;52.84
35551;BME280;21655;46.056;13.616;2022-07-03T05:48:33;100514.59;;;27.62;52.14
35551;BME280;21655;46.056;13.616;2022-07-03T05:50:59;100517.16;;;27.69;52.20
35551;BME280;21655;46.056;13.616;2022-07-03T05:53:25;100519.38;;;27.92;51.73
35551;BME280;21655;46.056;13.616;2022-07-03T05:55:50;100521.34;;;28.01;51.21
35551;BME280;21655;46.056;13.616;2022-07-03T05:58:16;100519.06;;;28.03;50.45
35551;BME280;21655;46.056;13.616;2022-07-03T06:00:42;100520.13;;;28.27;50.68
35551;BME280;21655;46.056;13.616;2022-07-03T06:03:08;100516.06;;;28.43;49.78
35551;BME280;21655;46.056;13.616;2022-07-03T06:05:33;100517.81;;;28.24;49.84
35551;BME280;21655;46.056;13.616;2022-07-03T06:07:59;100524.00;;;28.51;50.46
35551;BME280;21655;46.056;13.616;2022-07-03T06:10:25;100514.81;;;28.64;49.63
35551;BME280;21655;46.056;13.616;2022-07-03T06:12:51;100517.22;;;28.42;49.36
35551;BME280;21655;46.056;13.616;2022-07-03T06:15:17;100520.63;;;28.93;48.73
35551;BME280;21655;46.056;13.616;2022-07-03T06:17:42;100522.13;;;28.80;49.09
35551;BME280;21655;46.056;13.616;2022-07-03T06:20:09;100512.38;;;29.24;48.63
35551;BME280;21655;46.056;13.616;2022-07-03T06:22:35;100518.22;;;29.48;47.85
35551;BME280;21655;46.056;13.616;2022-07-03T06:25:01;100508.53;;;29.39;47.18
35551;BME280;21655;46.056;13.616;2022-07-03T06:27:27;100515.78;;;29.26;46.94
35551;BME280;21655;46.056;13.616;2022-07-03T06:29:53;100517.91;;;29.44;46.71
35551;BME280;21655;46.056;13.616;2022-07-03T06:32:19;100518.44;;;29.80;45.91
35551;BME280;21655;46.056;13.616;2022-07-03T06:34:44;100513.31;;;30.05;46.12
35551;BME280;21655;46.056;13.616;2022-07-03T06:37:10;100519.88;;;30.29;45.10
35551;BME280;21655;46.056;13.616;2022-07-03T06:39:36;100515.28;;;29.81;45.05
35551;BME280;21655;46.056;13.616;2022-07-03T06:42:02;100510.53;;;29.95;45.29
35551;BME280;21655;46.056;13.616;2022-07-03T06:44:28;100510.75;;;30.04;44.62
35551;BME280;21655;46.056;13.616;2022-07-03T06:46:53;100507.88;;;30.27;44.34
35551;BME280;21655;46.056;13.616;2022-07-03T06:49:19;100506.47;;;30.48;43.46
35551;BME280;21655;46.056;13.616;2022-07-03T06:51:45;100507.97;;;30.22;44.18
35551;BME280;21655;46.056;13.616;2022-07-03T06:54:10;100507.31;;;30.49;43.37
35551;BME280;21655;46.056;13.616;2022-07-03T06:56:35;100499.78;;;30.76;42.99
35551;BME280;21655;46.056;13.616;2022-07-03T06:59:01;100501.41;;;30.64;43.40
35551;BME280;21655;46.056;13.616;2022-07-03T07:01:26;100499.94;;;30.85;42.34
35551;BME280;21655;46.056;13.616;2022-07-03T07:03:52;100486.03;;;31.47;41.71
35551;BME280;21655;46.056;13.616;2022-07-03T07:06:17;100491.03;;;31.55;41.12
35551;BME280;21655;46.056;13.616;2022-07-03T07:08:43;100490.59;;;31.80;40.70
35551;BME280;21655;46.056;13.616;2022-07-03T07:11:09;100486.47;;;31.54;41.04
35551;BME280;21655;46.056;13.616;2022-07-03T07:13:34;100488.66;;;31.89;40.52
35551;BME280;21655;46.056;13.616;2022-07-03T07:16:00;100489.03;;;31.55;40.70
35551;BME280;21655;46.056;13.616;2022-07-03T07:18:26;100488.38;;;31.58;41.42
35551;BME280;21655;46.056;13.616;2022-07-03T07:20:52;100490.47;;;31.85;40.84
35551;BME280;21655;46.056;13.616;2022-07-03T07:23:17;100481.47;;;32.18;40.24
35551;BME280;21655;46.056;13.616;2022-07-03T07:25:43;100482.34;;;32.19;39.27
35551;BME280;21655;46.056;13.616;2022-07-03T07:28:08;100486.97;;;32.01;39.62
35551;BME280;21655;46.056;13.616;2022-07-03T07:30:33;100485.94;;;32.38;39.60
35551;BME280;21655;46.056;13.616;2022-07-03T07:32:59;100488.03;;;32.73;38.32
35551;BME280;21655;46.056;13.616;2022-07-03T07:35:24;100495.53;;;32.47;38.35
35551;BME280;21655;46.056;13.616;2022-07-03T07:37:50;100485.91;;;32.78;38.57
35551;BME280;21655;46.056;13.616;2022-07-03T07:40:15;100485.84;;;33.27;37.28
35551;BME280;21655;46.056;13.616;2022-07-03T07:42:41;100481.94;;;33.45;37.50
35551;BME280;21655;46.056;13.616;2022-07-03T07:45:08;100478.56;;;33.73;36.77
35551;BME280;21655;46.056;13.616;2022-07-03T07:47:34;100476.91;;;33.50;37.38
35551;BME280;21655;46.056;13.616;2022-07-03T07:49:59;100487.88;;;33.27;37.15
35551;BME280;21655;46.056;13.616;2022-07-03T07:52:25;100475.16;;;33.06;37.80
35551;BME280;21655;46.056;13.616;2022-07-03T07:54:50;100467.75;;;33.48;36.59
35551;BME280;21655;46.056;13.616;2022-07-03T07:57:16;100469.81;;;33.56;36.37
35551;BME280;21655;46.056;13.616;2022-07-03T07:59:41;100466.13;;;33.86;36.70
35551;BME280;21655;46.056;13.616;2022-07-03T08:02:06;100461.88;;;33.84;36.36
35551;BME280;21655;46.056;13.616;2022-07-03T08:04:51;100462.50;;;33.72;36.32
35551;BME280;21655;46.056;13.616;2022-07-03T08:07:35;100457.75;;;33.76;37.10
35551;BME280;21655;46.056;13.616;2022-07-03T08:10:00;100460.38;;;34.25;35.81
35551;BME280;21655;46.056;13.616;2022-07-03T08:12:26;100455.91;;;34.67;35.14
35551;BME280;21655;46.056;13.616;2022-07-03T08:14:51;100457.38;;;34.39;35.67
35551;BME280;21655;46.056;13.616;2022-07-03T08:17:17;100457.69;;;34.93;35.51
35551;BME280;21655;46.056;13.616;2022-07-03T08:19:42;100451.03;;;34.84;35.32
35551;BME280;21655;46.056;13.616;2022-07-03T08:22:08;100461.56;;;34.97;34.86
35551;BME280;21655;46.056;13.616;2022-07-03T08:24:33;100454.13;;;34.96;34.93
35551;BME280;21655;46.056;13.616;2022-07-03T08:26:58;100452.72;;;35.53;34.56
35551;BME280;21655;46.056;13.616;2022-07-03T08:29:24;100446.75;;;35.58;34.13
35551;BME280;21655;46.056;13.616;2022-07-03T08:31:49;100452.53;;;36.21;34.13
35551;BME280;21655;46.056;13.616;2022-07-03T08:34:15;100438.56;;;35.85;33.10
35551;BME280;21655;46.056;13.616;2022-07-03T08:36:42;100443.28;;;35.27;34.66
35551;BME280;21655;46.056;13.616;2022-07-03T08:39:07;100434.88;;;35.59;34.04
35551;BME280;21655;46.056;13.616;2022-07-03T08:41:36;100434.03;;;35.59;34.34
35551;BME280;21655;46.056;13.616;2022-07-03T08:44:02;100435.72;;;35.77;34.63
35551;BME280;21655;46.056;13.616;2022-07-03T08:46:31;100425.53;;;36.08;34.24
35551;BME280;21655;46.056;13.616;2022-07-03T08:48:59;100425.28;;;36.30;33.19
35551;BME280;21655;46.056;13.616;2022-07-03T08:51:25;100431.59;;;36.53;33.17
35551;BME280;21655;46.056;13.616;2022-07-03T08:53:53;100424.03;;;36.11;33.50
35551;BME280;21655;46.056;13.616;2022-07-03T08:56:22;100418.91;;;36.16;33.81
35551;BME280;21655;46.056;13.616;2022-07-03T08:58:48;100420.47;;;36.43;32.90
35551;BME280;21655;46.056;13.616;2022-07-03T09:01:16;100427.91;;;35.69;33.52
35551;BME280;21655;46.056;13.616;2022-07-03T09:03:42;100428.88;;;36.27;33.49
35551;BME280;21655;46.056;13.616;2022-07-03T09:06:08;100427.44;;;36.42;33.05
35551;BME280;21655;46.056;13.616;2022-07-03T09:08:34;100415.09;;;36.82;32.13
35551;BME280;21655;46.056;13.616;2022-07-03T09:11:01;100422.59;;;36.54;31.72
35551;BME280;21655;46.056;13.616;2022-07-03T09:13:28;100417.19;;;36.44;31.76
35551;BME280;21655;46.056;13.616;2022-07-03T09:15:54;100413.22;;;36.28;33.17
35551;BME280;21655;46.056;13.616;2022-07-03T09:18:39;100410.78;;;36.10;32.84
35551;BME280;21655;46.056;13.616;2022-07-03T09:21:05;100409.78;;;36.35;32.66
35551;BME280;21655;46.056;13.616;2022-07-03T09:23:39;100413.97;;;37.16;31.50
35551;BME280;21655;46.056;13.616;2022-07-03T09:26:06;100419.03;;;37.83;30.96
35551;BME280;21655;46.056;13.616;2022-07-03T09:31:15;100406.41;;;37.23;31.78
35551;BME280;21655;46.056;13.616;2022-07-03T09:44:51;100402.19;;;40.06;28.28
35551;BME280;21655;46.056;13.616;2022-07-03T09:47:21;100410.78;;;39.72;27.88
35551;BME280;21655;46.056;13.616;2022-07-03T09:52:45;100410.72;;;40.30;28.47
35551;BME280;21655;46.056;13.616;2022-07-03T10:03:08;100395.00;;;39.18;29.47
35551;BME280;21655;46.056;13.616;2022-07-03T10:10:35;100386.59;;;39.41;29.21
35551;BME280;21655;46.056;13.616;2022-07-03T10:13:01;100382.09;;;39.71;28.41
35551;BME280;21655;46.056;13.616;2022-07-03T10:15:29;100376.50;;;40.24;27.20
35551;BME280;21655;46.056;13.616;2022-07-03T10:17:56;100374.34;;;40.05;28.05
35551;BME280;21655;46.056;13.616;2022-07-03T10:23:09;100389.03;;;38.99;28.44
35551;BME280;21655;46.056;13.616;2022-07-03T10:25:35;100378.59;;;38.71;28.91
35551;BME280;21655;46.056;13.616;2022-07-03T10:28:01;100380.94;;;38.29;30.22
35551;BME280;21655;46.056;13.616;2022-07-03T10:30:26;100376.13;;;38.33;29.44
35551;BME280;21655;46.056;13.616;2022-07-03T10:32:54;100375.00;;;37.90;31.00
35551;BME280;21655;46.056;13.616;2022-07-03T10:35:26;100380.66;;;37.75;31.67
35551;BME280;21655;46.056;13.616;2022-07-03T10:40:31;100371.22;;;37.33;30.85
35551;BME280;21655;46.056;13.616;2022-07-03T10:43:29;100367.88;;;36.70;31.94
35551;BME280;21655;46.056;13.616;2022-07-03T10:46:19;100369.16;;;36.81;31.36
35551;BME280;21655;46.056;13.616;2022-07-03T10:51:20;100363.91;;;36.54;32.65
35551;BME280;21655;46.056;13.616;2022-07-03T10:53:47;100364.25;;;36.61;32.51
35551;BME280;21655;46.056;13.616;2022-07-03T10:56:12;100360.25;;;36.45;32.22
35551;BME280;21655;46.056;13.616;2022-07-03T10:58:56;100356.94;;;36.34;32.69
35551;BME280;21655;46.056;13.616;2022-07-03T11:01:30;100349.19;;;36.88;32.37
35551;BME280;21655;46.056;13.616;2022-07-03T11:03:59;100344.88;;;36.94;33.10
35551;BME280;21655;46.056;13.616;2022-07-03T11:09:11;100340.47;;;37.29;32.43
35551;BME280;21655;46.056;13.616;2022-07-03T11:11:44;100347.72;;;36.82;30.69
35551;BME280;21655;46.056;13.616;2022-07-03T11:14:29;100342.16;;;36.56;31.66
35551;BME280;21655;46.056;13.616;2022-07-03T11:17:19;100339.41;;;36.60;32.19
35551;BME280;21655;46.056;13.616;2022-07-03T11:19:46;100340.09;;;36.77;32.14
35551;BME280;21655;46.056;13.616;2022-07-03T11:25:23;100325.84;;;36.52;30.91
35551;BME280;21655;46.056;13.616;2022-07-03T11:27:50;100314.94;;;36.78;32.87
35551;BME280;21655;46.056;13.616;2022-07-03T11:30:18;100322.81;;;36.89;32.12
35551;BME280;21655;46.056;13.616;2022-07-03T11:32:54;100306.56;;;36.97;30.84
35551;BME280;21655;46.056;13.616;2022-07-03T11:35:48;100315.25;;;37.29;31.60
35551;BME280;21655;46.056;13.616;2022-07-03T11:38:17;100314.25;;;37.58;31.16
35551;BME280;21655;46.056;13.616;2022-07-03T11:40:45;100305.06;;;37.56;30.72
35551;BME280;21655;46.056;13.616;2022-07-03T11:43:12;100309.25;;;37.90;31.40
35551;BME280;21655;46.056;13.616;2022-07-03T11:45:41;100302.91;;;37.65;30.24
35551;BME280;21655;46.056;13.616;2022-07-03T11:48:08;100293.50;;;37.79;31.19
35551;BME280;21655;46.056;13.616;2022-07-03T11:50:39;100285.63;;;37.80;29.85
35551;BME280;21655;46.056;13.616;2022-07-03T11:53:28;100294.63;;;37.31;31.20
35551;BME280;21655;46.056;13.616;2022-07-03T11:55:56;100287.03;;;37.26;30.97
35551;BME280;21655;46.056;13.616;2022-07-03T11:58:22;100276.19;;;37.35;30.24
35551;BME280;21655;46.056;13.616;2022-07-03T12:00:48;100275.28;;;37.67;30.14
35551;BME280;21655;46.056;13.616;2022-07-03T12:03:26;100265.94;;;37.38;29.08
35551;BME280;21655;46.056;13.616;2022-07-03T12:05:58;100259.28;;;37.25;29.36
35551;BME280;21655;46.056;13.616;2022-07-03T12:08:30;100259.28;;;37.25;29.30
35551;BME280;21655;46.056;13.616;2022-07-03T12:11:06;100262.41;;;37.20;29.96
35551;BME280;21655;46.056;13.616;2022-07-03T12:13:32;100262.72;;;37.51;30.48
35551;BME280;21655;46.056;13.616;2022-07-03T12:16:14;100270.03;;;37.25;29.22
35551;BME280;21655;46.056;13.616;2022-07-03T12:18:51;100258.19;;;37.18;29.09
35551;BME280;21655;46.056;13.616;2022-07-03T12:21:18;100254.78;;;37.04;29.46
35551;BME280;21655;46.056;13.616;2022-07-03T12:23:46;100259.59;;;37.56;30.38
35551;BME280;21655;46.056;13.616;2022-07-03T12:26:13;100252.84;;;38.00;29.62
35551;BME280;21655;46.056;13.616;2022-07-03T12:28:39;100254.72;;;38.20;28.29
35551;BME280;21655;46.056;13.616;2022-07-03T12:31:05;100252.38;;;37.98;29.06
35551;BME280;21655;46.056;13.616;2022-07-03T12:33:32;100236.31;;;37.77;28.49
35551;BME280;21655;46.056;13.616;2022-07-03T12:36:08;100242.44;;;37.87;28.88
35551;BME280;21655;46.056;13.616;2022-07-03T12:38:36;100246.88;;;38.20;28.99
35551;BME280;21655;46.056;13.616;2022-07-03T12:41:11;100243.91;;;38.05;28.91
35551;BME280;21655;46.056;13.616;2022-07-03T12:43:40;100236.53;;;38.07;27.45
35551;BME280;21655;46.056;13.616;2022-07-03T12:46:23;100225.16;;;38.14;28.25
35551;BME280;21655;46.056;13.616;2022-07-03T12:48:52;100222.69;;;38.28;27.75
35551;BME280;21655;46.056;13.616;2022-07-03T12:51:46;100224.53;;;38.33;27.41
35551;BME280;21655;46.056;13.616;2022-07-03T12:54:15;100225.50;;;38.13;25.35
35551;BME280;21655;46.056;13.616;2022-07-03T12:56:44;100219.22;;;38.23;25.85
35551;BME280;21655;46.056;13.616;2022-07-03T12:59:26;100216.31;;;38.62;27.35
35551;BME280;21655;46.056;13.616;2022-07-03T13:02:03;100216.19;;;38.59;27.23
35551;BME280;21655;46.056;13.616;2022-07-03T13:04:34;100211.25;;;38.87;27.27
35551;BME280;21655;46.056;13.616;2022-07-03T13:07:07;100211.72;;;39.04;27.02
35551;BME280;21655;46.056;13.616;2022-07-03T13:09:34;100210.22;;;38.95;26.40
35551;BME280;21655;46.056;13.616;2022-07-03T13:11:59;100220.91;;;38.91;25.46
35551;BME280;21655;46.056;13.616;2022-07-03T13:14:25;100208.66;;;39.13;27.04
35551;BME280;21655;46.056;13.616;2022-07-03T13:16:55;100202.88;;;38.42;24.40
35551;BME280;21655;46.056;13.616;2022-07-03T13:19:23;100204.19;;;38.72;24.54
35551;BME280;21655;46.056;13.616;2022-07-03T13:21:51;100212.75;;;38.96;23.54
35551;BME280;21655;46.056;13.616;2022-07-03T13:24:17;100211.91;;;38.68;24.64
35551;BME280;21655;46.056;13.616;2022-07-03T13:26:44;100217.69;;;38.80;24.38
35551;BME280;21655;46.056;13.616;2022-07-03T13:29:10;100211.53;;;38.82;23.63
35551;BME280;21655;46.056;13.616;2022-07-03T13:31:35;100222.25;;;38.14;23.23
35551;BME280;21655;46.056;13.616;2022-07-03T13:34:02;100211.66;;;38.06;23.60
35551;BME280;21655;46.056;13.616;2022-07-03T13:36:29;100203.13;;;38.37;23.00
35551;BME280;21655;46.056;13.616;2022-07-03T13:38:55;100193.84;;;38.59;24.45
35551;BME280;21655;46.056;13.616;2022-07-03T13:41:21;100208.00;;;38.88;24.74
35551;BME280;21655;46.056;13.616;2022-07-03T13:43:48;100206.78;;;38.89;24.74
35551;BME280;21655;46.056;13.616;2022-07-03T13:46:15;100219.63;;;39.04;25.11
35551;BME280;21655;46.056;13.616;2022-07-03T13:48:41;100218.50;;;39.08;24.83
35551;BME280;21655;46.056;13.616;2022-07-03T13:51:06;100213.06;;;38.24;25.50
35551;BME280;21655;46.056;13.616;2022-07-03T13:53:32;100215.66;;;38.02;25.15
35551;BME280;21655;46.056;13.616;2022-07-03T13:55:58;100218.78;;;37.85;26.63
35551;BME280;21655;46.056;13.616;2022-07-03T13:58:25;100211.34;;;37.48;27.28
35551;BME280;21655;46.056;13.616;2022-07-03T14:00:51;100198.53;;;37.37;27.42
35551;BME280;21655;46.056;13.616;2022-07-03T14:03:17;100194.06;;;37.52;26.91
35551;BME280;21655;46.056;13.616;2022-07-03T14:05:43;100198.59;;;37.88;27.83
35551;BME280;21655;46.056;13.616;2022-07-03T14:08:08;100192.81;;;38.12;26.41